createdAt,value
2019-03-04T00:01:15.805Z,79.68
2019-03-04T00:03:47.369Z,79.70
2019-03-04T00:06:20.122Z,79.18
2019-03-04T00:08:51.342Z,79.32
2019-03-04T00:11:22.836Z,78.82
2019-03-04T00:14:00.076Z,79.25
2019-03-04T00:16:31.691Z,79.54
2019-03-04T00:19:03.052Z,80.11
2019-03-04T00:21:34.749Z,79.45
2019-03-04T00:24:07.201Z,79.56
2019-03-04T00:26:38.535Z,79.24
2019-03-04T00:29:10.041Z,79.13
2019-03-04T00:31:41.381Z,79.95
2019-03-04T00:34:13.699Z,80.44
2019-03-04T00:36:45.389Z,79.91
2019-03-04T00:39:16.864Z,80.43
2019-03-04T00:41:48.671Z,81.03
2019-03-04T00:44:20.100Z,81.03
2019-03-04T00:46:52.678Z,80.55
2019-03-04T00:49:24.048Z,79.37
2019-03-04T00:51:55.229Z,80.01
2019-03-04T00:54:26.676Z,80.49
2019-03-04T00:56:57.885Z,79.86
2019-03-04T00:59:31.329Z,80.04
2019-03-04T01:02:03.136Z,80.37
2019-03-04T01:04:34.503Z,80.27
2019-03-04T01:07:05.962Z,79.70
2019-03-04T01:09:37.880Z,80.39
2019-03-04T01:12:09.210Z,80.35
2019-03-04T01:14:40.727Z,80.29
2019-03-04T01:17:12.088Z,80.29
2019-03-04T01:19:43.449Z,79.65
2019-03-04T01:22:15.075Z,79.41
2019-03-04T01:24:46.328Z,79.30
2019-03-04T01:27:17.689Z,79.21
2019-03-04T01:29:49.265Z,79.64
2019-03-04T01:32:20.621Z,79.63
2019-03-04T01:34:51.811Z,79.27
2019-03-04T01:37:23.066Z,79.34
2019-03-04T01:39:54.261Z,79.26
2019-03-04T01:42:25.924Z,79.82
2019-03-04T01:44:57.500Z,79.57
2019-03-04T01:47:28.693Z,79.51
2019-03-04T01:50:00.325Z,80.09
2019-03-04T01:52:31.671Z,80.13
2019-03-04T01:55:03.187Z,80.60
2019-03-04T01:57:34.450Z,80.42
2019-03-04T02:00:07.882Z,81.04
2019-03-04T02:02:39.704Z,81.15
2019-03-04T02:05:11.619Z,81.04
2019-03-04T02:07:43.538Z,81.50
2019-03-04T02:10:17.295Z,81.60
2019-03-04T02:12:48.739Z,80.88
2019-03-04T02:15:20.691Z,80.94
2019-03-04T02:17:51.955Z,80.74
2019-03-04T02:20:23.882Z,80.55
2019-03-04T02:22:55.297Z,80.27
2019-03-04T02:26:15.763Z,80.03
2019-03-04T02:28:46.994Z,79.75
2019-03-04T02:31:20.146Z,79.27
2019-03-04T02:33:51.289Z,79.35
2019-03-04T02:36:22.456Z,79.39
2019-03-04T02:38:53.684Z,78.13
2019-03-04T02:41:25.423Z,77.18
2019-03-04T02:43:57.920Z,77.35
2019-03-04T02:46:29.539Z,77.46
2019-03-04T02:49:01.145Z,77.18
2019-03-04T02:51:32.831Z,77.73
2019-03-04T02:54:04.154Z,76.27
2019-03-04T02:56:35.438Z,76.42
2019-03-04T02:59:06.764Z,76.47
2019-03-04T03:01:38.237Z,77.11
2019-03-04T03:04:09.676Z,76.45
2019-03-04T03:06:41.041Z,76.20
2019-03-04T03:09:13.835Z,76.66
2019-03-04T03:11:45.124Z,75.77
2019-03-04T03:14:17.655Z,75.50
2019-03-04T03:16:50.104Z,75.28
2019-03-04T03:19:21.535Z,74.01
2019-03-04T03:21:53.045Z,74.21
2019-03-04T03:24:24.465Z,74.69
2019-03-04T03:26:55.701Z,75.14
2019-03-04T03:29:26.854Z,74.98
2019-03-04T03:31:58.060Z,75.41
2019-03-04T03:34:29.225Z,76.61
2019-03-04T03:37:00.680Z,76.86
2019-03-04T03:39:31.863Z,76.89
2019-03-04T03:42:03.101Z,76.45
2019-03-04T03:44:34.528Z,76.11
2019-03-04T03:47:05.844Z,77.29
2019-03-04T03:49:37.381Z,77.55
2019-03-04T03:52:08.764Z,78.59
2019-03-04T03:54:40.069Z,78.30
2019-03-04T03:57:11.745Z,78.25
2019-03-04T03:59:43.145Z,77.95
2019-03-04T04:02:15.159Z,78.25
2019-03-04T04:04:46.461Z,78.30
2019-03-04T04:07:17.890Z,78.12
2019-03-04T04:09:50.089Z,76.88
2019-03-04T04:12:21.458Z,76.02
2019-03-04T04:14:53.462Z,75.62
2019-03-04T04:17:24.705Z,75.90
2019-03-04T04:19:56.265Z,77.10
2019-03-04T04:22:27.696Z,77.66
2019-03-04T04:24:58.919Z,77.65
2019-03-04T04:27:30.279Z,77.28
2019-03-04T04:30:01.562Z,76.33
2019-03-04T04:32:34.591Z,76.66
2019-03-04T04:35:06.301Z,76.03
2019-03-04T04:37:37.926Z,75.48
2019-03-04T04:40:09.631Z,75.72
2019-03-04T04:42:41.186Z,75.77
2019-03-04T04:45:13.081Z,76.98
2019-03-04T04:47:44.585Z,77.20
2019-03-04T04:50:16.167Z,76.86
2019-03-04T04:52:47.402Z,76.62
2019-03-04T04:55:18.771Z,76.81
2019-03-04T04:57:50.475Z,76.69
2019-03-04T05:00:21.815Z,76.23
2019-03-04T05:02:53.133Z,76.14
2019-03-04T05:05:24.546Z,76.12
2019-03-04T05:07:56.190Z,75.98
2019-03-04T05:10:27.522Z,76.36
2019-03-04T05:12:59.061Z,76.68
2019-03-04T05:15:30.843Z,76.99
2019-03-04T05:18:02.451Z,77.80
2019-03-04T05:20:33.739Z,78.26
2019-03-04T05:23:05.180Z,79.22
2019-03-04T05:25:36.508Z,79.18
2019-03-04T05:28:07.827Z,79.51
2019-03-04T05:30:39.337Z,79.77
2019-03-04T05:33:10.723Z,79.86
2019-03-04T05:35:41.905Z,79.27
2019-03-04T05:38:13.440Z,79.31
2019-03-04T05:40:44.696Z,79.26
2019-03-04T05:43:15.952Z,79.03
2019-03-04T05:45:47.379Z,79.68
2019-03-04T05:48:18.796Z,79.71
2019-03-04T05:50:50.148Z,80.23
2019-03-04T05:53:21.446Z,80.76
2019-03-04T05:55:52.743Z,80.87
2019-03-04T05:58:23.975Z,80.01
2019-03-04T06:01:18.747Z,80.29
2019-03-04T06:03:51.237Z,80.06
2019-03-04T06:06:59.683Z,79.42
2019-03-04T06:09:31.005Z,80.35
2019-03-04T06:12:02.293Z,81.60
2019-03-04T06:14:33.619Z,80.87
2019-03-04T06:17:05.492Z,80.23
2019-03-04T06:19:37.012Z,79.82
2019-03-04T06:22:08.401Z,78.31
2019-03-04T06:24:39.634Z,75.87
2019-03-04T06:27:10.975Z,73.99
2019-03-04T06:29:42.258Z,73.53
2019-03-04T06:32:13.581Z,73.66
2019-03-04T06:34:44.777Z,74.71
2019-03-04T06:37:16.249Z,73.98
2019-03-04T06:39:48.234Z,74.55
2019-03-04T06:42:19.874Z,73.83
2019-03-04T06:44:51.401Z,74.25
2019-03-04T06:47:23.043Z,75.10
2019-03-04T06:49:54.502Z,73.78
2019-03-04T06:52:27.126Z,72.47
2019-03-04T06:55:33.552Z,69.99
2019-03-04T06:58:04.872Z,69.31
2019-03-04T07:01:06.098Z,68.26
2019-03-04T07:03:45.259Z,67.86
2019-03-04T07:06:16.562Z,65.86
2019-03-04T07:09:17.222Z,63.63
2019-03-04T07:11:54.058Z,63.42
2019-03-04T07:14:25.416Z,57.49
2019-03-04T07:16:56.982Z,55.64
2019-03-04T07:19:34.256Z,55.41
2019-03-04T07:22:05.909Z,55.29
2019-03-04T07:24:37.157Z,56.83
2019-03-04T07:27:08.540Z,58.04
2019-03-04T07:29:39.856Z,60.21
2019-03-04T07:32:11.501Z,60.39
2019-03-04T07:34:42.806Z,59.95
2019-03-04T07:37:14.036Z,59.52
2019-03-04T07:39:45.706Z,60.83
2019-03-04T07:42:16.936Z,60.31
2019-03-04T07:44:48.475Z,58.63
2019-03-04T07:47:19.632Z,59.69
2019-03-04T07:49:51.723Z,61.55
2019-03-04T07:52:22.885Z,61.39
2019-03-04T07:54:54.104Z,58.78
2019-03-04T07:57:25.743Z,62.40
2019-03-04T07:59:56.893Z,61.30
2019-03-04T08:02:28.132Z,56.90
2019-03-04T08:04:59.776Z,56.96
2019-03-04T08:07:50.772Z,51.07
2019-03-04T08:11:34.160Z,50.47
2019-03-04T08:14:05.571Z,49.03
2019-03-04T08:16:38.079Z,47.10
2019-03-04T08:19:09.335Z,44.56
2019-03-04T08:21:40.738Z,43.18
2019-03-04T08:24:12.350Z,41.84
2019-03-04T08:26:43.695Z,42.65
2019-03-04T08:29:15.600Z,41.10
2019-03-04T08:31:47.038Z,39.72
2019-03-04T08:34:18.303Z,39.19
2019-03-04T08:36:50.287Z,38.53
2019-03-04T08:39:22.965Z,38.97
2019-03-04T08:41:54.613Z,38.83
2019-03-04T08:44:26.267Z,38.64
2019-03-04T08:46:57.685Z,39.93
2019-03-04T08:49:28.933Z,43.16
2019-03-04T08:52:00.328Z,44.98
2019-03-04T08:54:31.780Z,44.28
2019-03-04T08:57:04.171Z,43.33
2019-03-04T08:59:35.622Z,44.70
2019-03-04T09:02:07.503Z,44.95
2019-03-04T09:04:39.022Z,46.32
2019-03-04T09:07:10.412Z,47.08
2019-03-04T09:09:41.629Z,48.73
2019-03-04T09:12:12.809Z,49.97
2019-03-04T09:14:44.445Z,49.45
2019-03-04T09:17:15.727Z,49.11
2019-03-04T09:19:46.957Z,50.22
2019-03-04T09:22:18.371Z,48.97
2019-03-04T09:24:49.703Z,49.08
2019-03-04T09:27:21.426Z,49.29
2019-03-04T09:29:52.669Z,49.51
2019-03-04T09:32:24.353Z,49.50
2019-03-04T09:34:55.737Z,48.73
2019-03-04T09:37:27.085Z,48.24
2019-03-04T09:39:58.977Z,47.70
2019-03-04T09:42:31.817Z,47.12
2019-03-04T09:45:03.111Z,47.08
2019-03-04T09:47:34.536Z,44.95
2019-03-04T09:50:08.963Z,45.90
2019-03-04T09:52:40.399Z,47.14
2019-03-04T09:55:13.602Z,47.77
2019-03-04T09:57:45.052Z,48.29
2019-03-04T10:01:03.066Z,48.52
2019-03-04T10:04:19.763Z,48.53
2019-03-04T10:08:01.699Z,48.33
2019-03-04T10:11:26.567Z,48.43
2019-03-04T10:14:22.602Z,48.59
2019-03-04T10:17:59.691Z,48.66
2019-03-04T10:21:18.850Z,48.92
2019-03-04T10:24:33.141Z,47.82
2019-03-04T10:27:33.319Z,48.69
2019-03-04T10:30:57.123Z,48.84
2019-03-04T10:34:15.769Z,49.78
2019-03-04T10:37:36.216Z,49.41
2019-03-04T10:41:05.324Z,49.38
2019-03-04T10:44:55.228Z,51.05
2019-03-04T10:47:26.527Z,51.84
2019-03-04T10:49:58.128Z,53.20
2019-03-04T10:52:29.591Z,53.66
2019-03-04T10:55:01.606Z,54.60
2019-03-04T10:57:33.813Z,55.35
2019-03-04T11:00:11.980Z,55.87
2019-03-04T11:02:44.012Z,56.58
2019-03-04T11:05:15.771Z,58.29
2019-03-04T11:07:47.224Z,60.33
2019-03-04T11:10:18.489Z,60.88
2019-03-04T11:12:49.656Z,62.34
2019-03-04T11:15:24.251Z,61.49
2019-03-04T11:17:56.208Z,60.98
2019-03-04T11:20:27.663Z,59.64
2019-03-04T11:22:59.192Z,59.65
2019-03-04T11:25:30.634Z,57.56
2019-03-04T11:28:02.067Z,56.80
2019-03-04T11:30:33.682Z,55.89
2019-03-04T11:33:05.172Z,55.02
2019-03-04T11:35:36.968Z,52.93
2019-03-04T11:38:28.928Z,53.38
2019-03-04T11:41:00.290Z,53.70
2019-03-04T11:43:32.006Z,54.25
2019-03-04T11:46:03.400Z,52.49
2019-03-04T11:48:34.785Z,53.05
2019-03-04T11:51:07.096Z,50.63
2019-03-04T11:53:38.469Z,50.21
2019-03-04T11:56:09.855Z,50.44
2019-03-04T11:58:41.188Z,50.42
2019-03-04T12:01:15.931Z,49.64
2019-03-04T12:03:47.164Z,48.82
2019-03-04T12:06:18.739Z,48.75
2019-03-04T12:08:50.047Z,47.77
2019-03-04T12:11:22.457Z,48.03
2019-03-04T12:13:53.796Z,47.91
2019-03-04T12:16:25.581Z,48.56
2019-03-04T12:18:56.993Z,47.99
2019-03-04T12:21:28.469Z,47.26
2019-03-04T12:24:00.408Z,45.46
2019-03-04T12:26:31.716Z,46.35
2019-03-04T12:29:03.231Z,47.06
2019-03-04T12:31:44.060Z,46.65
2019-03-04T12:34:24.964Z,46.13
2019-03-04T12:36:55.534Z,46.45
2019-03-04T12:39:28.008Z,46.51
2019-03-04T12:41:59.657Z,45.39
2019-03-04T12:44:31.012Z,43.96
2019-03-04T12:47:02.252Z,44.89
2019-03-04T12:49:33.962Z,44.67
2019-03-04T12:52:05.359Z,44.66
2019-03-04T12:54:36.889Z,45.09
2019-03-04T12:57:08.523Z,45.76
2019-03-04T12:59:40.228Z,47.08
2019-03-04T13:02:11.647Z,47.52
2019-03-04T13:04:43.634Z,48.63
2019-03-04T13:07:15.227Z,49.22
2019-03-04T13:09:47.193Z,50.20
2019-03-04T13:12:18.575Z,50.21
2019-03-04T13:14:50.146Z,50.60
2019-03-04T13:17:21.467Z,51.30
2019-03-04T13:19:53.176Z,51.91
2019-03-04T13:22:25.323Z,51.60
2019-03-04T13:24:56.701Z,51.90
2019-03-04T13:27:28.019Z,51.74
2019-03-04T13:29:59.378Z,52.11
2019-03-04T13:32:30.806Z,52.06
2019-03-04T13:35:02.099Z,52.76
2019-03-04T13:37:33.419Z,52.89
2019-03-04T13:40:05.507Z,52.76
2019-03-04T13:42:37.661Z,52.80
2019-03-04T13:45:11.585Z,53.47
2019-03-04T13:47:43.220Z,54.05
2019-03-04T13:50:18.620Z,53.81
2019-03-04T13:52:50.463Z,54.76
2019-03-04T13:55:21.904Z,54.40
2019-03-04T13:57:53.520Z,53.42
2019-03-04T14:00:24.919Z,53.87
2019-03-04T14:02:56.321Z,54.33
2019-03-04T14:05:27.607Z,53.97
2019-03-04T14:07:58.968Z,53.21
2019-03-04T14:10:33.505Z,52.73
2019-03-04T14:13:04.996Z,53.31
2019-03-04T14:15:39.574Z,52.13
2019-03-04T14:18:11.208Z,52.09
2019-03-04T14:20:42.636Z,51.98
2019-03-04T14:23:14.619Z,51.10
2019-03-04T14:25:46.059Z,51.77
2019-03-04T14:28:17.634Z,51.48
2019-03-04T14:30:48.912Z,51.79
2019-03-04T14:33:20.354Z,51.59
2019-03-04T14:35:52.294Z,50.56
2019-03-04T14:38:23.595Z,50.90
2019-03-04T14:40:54.737Z,50.59
2019-03-04T14:43:25.995Z,50.24
2019-03-04T14:45:57.754Z,50.94
2019-03-04T14:48:29.161Z,50.80
2019-03-04T14:51:00.496Z,50.33
2019-03-04T14:53:32.167Z,50.42
2019-03-04T14:56:03.546Z,50.47
2019-03-04T14:58:35.148Z,50.69
2019-03-04T15:01:06.992Z,50.58
2019-03-04T15:03:38.428Z,50.87
2019-03-04T15:06:09.977Z,51.27
2019-03-04T15:08:42.203Z,51.37
2019-03-04T15:11:14.231Z,50.71
2019-03-04T15:13:45.636Z,50.64
2019-03-04T15:16:17.149Z,51.19
2019-03-04T15:18:48.384Z,50.84
2019-03-04T15:21:19.731Z,51.07
2019-03-04T15:23:51.314Z,51.05
2019-03-04T15:26:22.726Z,51.26
2019-03-04T15:28:53.976Z,51.12
2019-03-04T15:31:26.278Z,50.92
2019-03-04T15:33:58.234Z,51.17
2019-03-04T15:36:29.490Z,50.54
2019-03-04T15:39:01.568Z,50.90
2019-03-04T15:41:40.128Z,51.18
2019-03-04T15:44:07.888Z,50.21
2019-03-04T15:46:39.266Z,49.67
2019-03-04T15:49:10.685Z,48.82
2019-03-04T15:51:41.950Z,48.29
2019-03-04T15:54:13.638Z,48.38
2019-03-04T15:56:44.956Z,48.95
2019-03-04T15:59:16.690Z,48.94
2019-03-04T16:01:48.013Z,48.87
2019-03-04T16:04:19.405Z,48.76
2019-03-04T16:06:50.851Z,48.97
2019-03-04T16:09:23.490Z,49.23
2019-03-04T16:11:54.881Z,51.00
2019-03-04T16:14:26.421Z,50.46
2019-03-04T16:16:58.144Z,50.04
2019-03-04T16:19:29.856Z,50.45
2019-03-04T16:22:01.439Z,50.17
2019-03-04T16:24:33.276Z,50.66
2019-03-04T16:27:11.988Z,50.85
2019-03-04T16:29:43.707Z,51.35
2019-03-04T16:32:15.359Z,51.96
2019-03-04T16:34:47.753Z,52.65
2019-03-04T16:37:19.047Z,53.21
2019-03-04T16:39:50.450Z,54.27
2019-03-04T16:42:22.328Z,55.03
2019-03-04T16:44:53.671Z,55.90
2019-03-04T16:47:24.921Z,56.48
2019-03-04T16:49:56.219Z,56.70
2019-03-04T16:52:30.627Z,57.36
2019-03-04T16:55:02.041Z,57.80
2019-03-04T16:57:33.450Z,57.71
2019-03-04T17:00:06.188Z,57.72
2019-03-04T17:02:39.192Z,57.62
2019-03-04T17:05:12.732Z,57.73
2019-03-04T17:07:44.309Z,58.02
2019-03-04T17:10:17.500Z,58.50
2019-03-04T17:12:49.368Z,58.03
2019-03-04T17:15:21.197Z,58.22
2019-03-04T17:17:52.779Z,58.70
2019-03-04T17:20:24.429Z,58.54
2019-03-04T17:22:55.988Z,58.09
2019-03-04T17:25:27.714Z,57.65
2019-03-04T17:27:59.535Z,57.38
2019-03-04T17:30:31.598Z,57.75
2019-03-04T17:33:03.651Z,57.75
2019-03-04T17:35:35.202Z,57.94
2019-03-04T17:38:06.573Z,57.61
2019-03-04T17:40:38.467Z,57.37
2019-03-04T17:43:10.409Z,56.31
2019-03-04T17:45:42.414Z,55.37
2019-03-04T17:48:13.919Z,56.01
2019-03-04T17:50:45.520Z,56.92
2019-03-04T17:53:17.099Z,58.35
2019-03-04T17:55:48.870Z,59.53
2019-03-04T17:58:20.373Z,60.98
2019-03-04T18:00:54.081Z,61.77
2019-03-04T18:03:25.620Z,63.92
2019-03-04T18:05:57.181Z,69.65
2019-03-04T18:08:29.023Z,76.34
2019-03-04T18:11:00.435Z,78.54
2019-03-04T18:13:32.580Z,80.10
2019-03-04T18:16:04.641Z,78.15
2019-03-04T18:18:37.381Z,78.74
2019-03-04T18:21:08.865Z,78.26
2019-03-04T18:23:40.592Z,79.11
2019-03-04T18:26:20.961Z,77.42
2019-03-04T18:29:33.766Z,78.91
2019-03-04T18:33:16.925Z,79.80
2019-03-04T18:36:57.064Z,81.08
2019-03-04T18:40:27.573Z,80.17
2019-03-04T18:44:12.072Z,81.10
2019-03-04T18:47:27.460Z,82.69
2019-03-04T18:49:58.763Z,83.00
2019-03-04T18:52:30.357Z,85.23
2019-03-04T18:55:08.210Z,85.59
2019-03-04T18:57:39.701Z,86.13
2019-03-04T19:00:15.754Z,85.75
2019-03-04T19:02:48.394Z,85.84
2019-03-04T19:05:19.813Z,85.29
2019-03-04T19:07:51.387Z,85.69
2019-03-04T19:10:22.906Z,86.76
2019-03-04T19:12:54.449Z,86.36
2019-03-04T19:15:25.825Z,87.93
2019-03-04T19:17:57.312Z,88.24
2019-03-04T19:20:28.798Z,89.38
2019-03-04T19:23:00.717Z,88.14
2019-03-04T19:25:32.222Z,86.39
2019-03-04T19:28:04.807Z,86.92
2019-03-04T19:30:36.769Z,86.26
2019-03-04T19:33:08.225Z,87.42
2019-03-04T19:35:39.844Z,87.00
2019-03-04T19:38:11.464Z,86.40
2019-03-04T19:40:42.908Z,86.93
2019-03-04T19:43:14.551Z,87.68
2019-03-04T19:45:46.416Z,87.74
2019-03-04T19:48:18.710Z,87.85
2019-03-04T19:50:50.176Z,88.30
2019-03-04T19:53:21.666Z,87.95
2019-03-04T19:55:54.345Z,89.00
2019-03-04T19:58:25.801Z,87.20
2019-03-04T20:00:58.221Z,88.67
2019-03-04T20:03:30.184Z,88.60
2019-03-04T20:06:03.059Z,86.88
2019-03-04T20:08:34.697Z,86.17
2019-03-04T20:11:06.809Z,87.15
2019-03-04T20:13:38.631Z,87.59
2019-03-04T20:16:11.313Z,86.29
2019-03-04T20:18:42.702Z,86.92
2019-03-04T20:21:14.587Z,85.78
2019-03-04T20:23:45.995Z,85.46
2019-03-04T20:26:17.859Z,85.67
2019-03-04T20:28:49.486Z,85.83
2019-03-04T20:31:20.921Z,85.58
2019-03-04T20:33:52.498Z,84.53
2019-03-04T20:36:25.928Z,84.67
2019-03-04T20:38:57.621Z,82.77
2019-03-04T20:41:29.692Z,82.78
2019-03-04T20:44:01.315Z,82.62
2019-03-04T20:46:33.250Z,82.73
2019-03-04T20:49:04.830Z,83.04
2019-03-04T20:51:36.301Z,82.25
2019-03-04T20:54:09.613Z,84.11
2019-03-04T20:56:41.603Z,82.17
2019-03-04T20:59:13.031Z,82.84
2019-03-04T21:01:45.216Z,82.56
2019-03-04T21:04:17.114Z,83.58
2019-03-04T21:06:48.886Z,83.92
2019-03-04T21:09:20.987Z,83.48
2019-03-04T21:11:52.641Z,81.89
2019-03-04T21:14:24.252Z,78.88
2019-03-04T21:16:55.890Z,79.01
2019-03-04T21:19:27.460Z,78.47
2019-03-04T21:21:58.954Z,78.84
2019-03-04T21:24:30.842Z,77.85
2019-03-04T21:27:02.344Z,78.30
2019-03-04T21:30:23.097Z,78.66
2019-03-04T21:33:28.323Z,80.41
2019-03-04T21:36:54.897Z,79.65
2019-03-04T21:39:36.300Z,80.32
2019-03-04T21:42:39.791Z,81.24
2019-03-04T21:46:22.902Z,81.66
2019-03-04T21:49:00.602Z,81.56
2019-03-04T21:52:42.851Z,82.63
2019-03-04T21:55:29.808Z,81.87
2019-03-04T21:58:02.039Z,81.68
2019-03-04T22:00:41.458Z,82.69
2019-03-04T22:03:27.072Z,82.26
2019-03-04T22:05:59.863Z,83.32
2019-03-04T22:08:31.517Z,83.69
2019-03-04T22:11:03.854Z,83.34
2019-03-04T22:13:35.491Z,83.42
2019-03-04T22:16:07.157Z,83.09
2019-03-04T22:18:38.723Z,83.81
2019-03-04T22:21:16.683Z,83.37
2019-03-04T22:23:45.373Z,83.69
2019-03-04T22:26:17.487Z,83.93
2019-03-04T22:28:49.190Z,84.48
2019-03-04T22:31:20.971Z,85.02
2019-03-04T22:33:52.520Z,85.40
2019-03-04T22:36:24.400Z,85.55
2019-03-04T22:38:56.057Z,86.51
2019-03-04T22:41:27.896Z,87.72
2019-03-04T22:43:59.396Z,88.35
2019-03-04T22:46:31.290Z,88.00
2019-03-04T22:49:02.919Z,88.33
2019-03-04T22:51:34.444Z,89.33
2019-03-04T22:54:06.172Z,89.34
2019-03-04T22:56:37.489Z,89.80
2019-03-04T22:59:08.915Z,90.19
2019-03-04T23:02:02.752Z,90.58
2019-03-04T23:04:44.544Z,90.70
2019-03-04T23:07:47.236Z,90.13
2019-03-04T23:10:48.903Z,90.46
2019-03-04T23:14:12.172Z,90.66
2019-03-04T23:16:43.828Z,89.22
2019-03-04T23:19:15.364Z,90.33
2019-03-04T23:21:47.046Z,89.23
2019-03-04T23:24:18.589Z,89.73
2019-03-04T23:26:50.103Z,89.59
2019-03-04T23:29:21.921Z,89.32
2019-03-04T23:31:53.391Z,89.67
2019-03-04T23:34:24.886Z,89.81
2019-03-04T23:36:56.847Z,89.48
2019-03-04T23:39:28.363Z,90.06
2019-03-04T23:42:00.313Z,90.04
2019-03-04T23:44:32.413Z,90.24
2019-03-04T23:47:03.690Z,89.85
2019-03-04T23:49:35.335Z,90.83
2019-03-04T23:52:07.383Z,91.41
2019-03-04T23:54:38.874Z,90.74
2019-03-04T23:57:10.862Z,91.07
2019-03-04T23:59:42.267Z,91.51
